Practice 2 - Green
Course: Road America · 2026-09-05 10:15AM
Weather Conditions
Temp 73°F
(64–74°F range)
Temp type NORMAL
Track DAMP
Precip 0.2 mm (DRIZZLE)
Humidity 85%
Wind 16 km/h
Cloud 95%
OVERALL
BY CLASS
| POS | # | NAME | CLASS | BEST LAP | GAP | INTERVAL | LAPS |
|---|---|---|---|---|---|---|---|
| 1 | 222 | CHARLIE REITER | SP3 | 2:36.900 | - | - | 7 |
| 2 | 771 | ROB WALKER | SPB | 2:37.929 | 1.029 | 1.029 | 7 |
| 3 | 323 | ROBERT BOXALL | SP3 | 2:39.097 | 2.197 | 1.168 | 7 |
| 4 | 320 | GREG ROJIK | SP3 | 2:39.456 | 2.556 | 0.359 | 7 |
| 5 | 92 | DOUG CROSSMAN | G | 2:39.914 | 3.014 | 0.458 | 7 |
| 6 | 441 | SHAWN O'BRIEN | SPB | 2:40.058 | 3.158 | 0.144 | 7 |
| 7 | 10 | AUSTIN ROLAND | SPB | 2:40.521 | 3.621 | 0.463 | 7 |
| 8 | 515 | RICHARD EGLESTON | H | 2:43.289 | 6.389 | 2.768 | 7 |
| 9 | 07 | TIM SMITH | 911CUP | 2:44.262 | 7.362 | 0.973 | 7 |
| 10 | 372 | CHRIS MacDUFF | SPB | 2:44.702 | 7.802 | 0.440 | 7 |
| 11 | 165 | TAMER ELBAGA | SPB | 2:45.816 | 8.916 | 1.114 | 7 |
| 12 | 18 | ROBERT LINDER | SP3 | 2:46.683 | 9.783 | 0.867 | 7 |
| 13 | 106 | DALLAS CARROLL | SPB | 2:47.471 | 10.571 | 0.788 | 7 |
| 14 | 598 | PHILIP MITCHELL | SPB | 2:47.496 | 10.596 | 0.025 | 6 |
| 15 | 50 | GLEN LARSON | D | 2:51.499 | 14.599 | 4.003 | 6 |
| 16 | 89 | JOHN BIRK | SPB | 2:54.236 | 17.336 | 2.737 | 6 |
| 17 | 86 | ANDREW FLORIG | SP3 | 2:54.481 | 17.581 | 0.245 | 6 |
| 18 | 622 | STAN WENGER | SPB | 2:58.261 | 21.361 | 3.780 | 5 |
| 19 | 11 | TOMAS KONVALINA | SP1 | 2:58.800 | 21.900 | 0.539 | 6 |
| 20 | 56 | ALBERT SALVADOR | SP1 | 3:02.189 | 25.289 | 3.389 | 5 |
| 21 | 47 | ROBERTO FRAGOMENI | SP3 | 3:09.599 | 32.699 | 7.410 | 6 |
| 22 | 2 | BOB VAN ZELST | G | 4:10.590 | 1:33.690 | 1:00.991 | 1 |
| 23 | 941 | JOHN MILLER | I | 4:11.589 | 1:34.689 | 0.999 | 1 |
Pole Position